Ulmodrome de Limoux

FR-0329 · Aude, Occitanie, França

História da METAR FR-0329 · Ulmodrome de Limoux

Abaixo você vê METARs dos últimos dias. Selecione um ano para navegar pelos METARs mais antigos, a partir do ano 2007.

19 de junho de 2024

Hora Código Clima Temp. Visibilidade Tecto Vento METAR/SPECI
21:00
M
22 °C 10 km+ 2.600 ft 230° 230° 4 kt METAR LFMK 191900Z AUTO 23004KT 170V280 9999 VCTS BKN026/// BKN034/// ///CB 22/19 Q1014
21:00
M
22 °C 10 km+ 2.600 ft 230° 230° 4 kt METAR LFMK 191900Z AUTO 23004KT 170V280 9999 VCTS BKN026/// BKN034/// //////CB 22/19 Q1014
20:30
V
23 °C 10 km+ 7.600 ft Var Var 3 kt METAR LFMK 191830Z AUTO VRB03KT 9999 FEW037/// BKN076/// //////CB 23/18 Q1013
20:00
V
23 °C 10 km+ 5.800 ft 300° 300° 6 kt METAR LFMK 191800Z AUTO 30006KT 9999 FEW039/// BKN058/// OVC068/// //////CB 23/18 Q1013 TEMPO 27020G35KT 4000 TSRA
19:30
V
24 °C 10 km+ 4.700 ft 280° 280° 5 kt METAR LFMK 191730Z AUTO 28005KT 260V320 9999 OVC047/// ///CB 24/18 Q1013 TEMPO 27020G35KT 4000 TSRA
19:00
V
24 °C 10 km+ 4.800 ft 280° 280° 8 kt METAR LFMK 191700Z AUTO 28008KT 240V300 9999 OVC048/// //////CB 24/18 Q1013 TEMPO 27020G35KT 4000 TSRA
18:30
V
25 °C 10 km+ 4.400 ft 280° 280° 7 kt METAR LFMK 191630Z AUTO 28007KT 250V310 9999 OVC044 25/18 Q1013 TEMPO 27020G35KT 4000 TSRA SCT030CB
18:00
V
25 °C 10 km+ 4.400 ft 300° 300° 7 kt METAR LFMK 191600Z AUTO 30007KT 260V330 9999 OVC044 25/18 Q1013 TEMPO 27020G35KT 4000 TSRA SCT030CB
17:30
V
26 °C 10 km+ 4.600 ft Var Var 3 kt METAR LFMK 191530Z AUTO VRB03KT 9999 OVC046 26/17 Q1013 TEMPO 27020G35KT 4000 TSRA SCT030CB
17:00
V
27 °C 10 km+ 4.900 ft 250° 250° 3 kt METAR LFMK 191500Z AUTO 25003KT 160V300 9999 BKN049 BKN150 27/17 Q1013 TEMPO 4000 TSRA SCT060CB
16:30
V
27 °C 10 km+ 5.400 ft 330° 330° 3 kt METAR LFMK 191430Z AUTO 33003KT 280V050 9999 BKN054 BKN160 27/17 Q1013 TEMPO 4000 TSRA SCT060CB
16:00
V
26 °C 10 km+ 15.000 ft Var Var 3 kt METAR LFMK 191400Z AUTO VRB03KT 9999 SCT056 BKN150 26/17 Q1013 NOSIG
15:30
V
26 °C 10 km+ 5.400 ft Var Var 3 kt METAR LFMK 191330Z AUTO VRB03KT 9999 BKN054 BKN150 26/18 Q1013 NOSIG
15:00
V
25 °C 10 km+ 5.400 ft Var Var 3 kt METAR LFMK 191300Z AUTO VRB03KT 9999 BKN054 OVC150 25/17 Q1013 NOSIG
14:30
V
25 °C 10 km+ 5.400 ft Var Var 3 kt METAR LFMK 191230Z AUTO VRB03KT 9999 FEW029 BKN054 OVC160 25/17 Q1014 NOSIG
14:00
V
25 °C 10 km+ 3.400 ft Var Var 4 kt METAR LFMK 191200Z AUTO VRB04KT 9999 SCT028 BKN034 BKN160 25/18 Q1013 NOSIG
13:30
V
25 °C 10 km+ 14.000 ft Var Var 2 kt METAR LFMK 191130Z AUTO VRB02KT 9999 SCT026 BKN140 BKN160 25/18 Q1013 NOSIG
13:00
V
24 °C 10 km+ 17.000 ft Var Var 3 kt METAR LFMK 191100Z AUTO VRB03KT 9999 SCT027 BKN170 24/18 Q1013 NOSIG
12:30
M
24 °C 10 km+ 2.400 ft 300° 300° 4 kt METAR LFMK 191030Z AUTO 30004KT 260V360 9999 OVC024 24/18 Q1013 NOSIG
12:00
M
23 °C 10 km+ 2.300 ft 280° 280° 3 kt METAR LFMK 191000Z AUTO 28003KT 220V360 9999 OVC023 23/18 Q1013 NOSIG
11:30
M
22 °C 10 km+ 1.600 ft 250° 250° 3 kt METAR LFMK 190930Z AUTO 25003KT 200V320 9999 BKN016 BKN022 OVC047 22/18 Q1013 NOSIG
11:00
M
22 °C 10 km+ 1.500 ft 290° 290° 5 kt METAR LFMK 190900Z AUTO 29005KT 260V320 9999 BKN015 OVC021 22/18 Q1013 NOSIG
10:30
V
22 °C 10 km+ 3.600 ft Var Var 2 kt METAR LFMK 190830Z AUTO VRB02KT 9999 SCT015 BKN036 OVC045 22/18 Q1013 NOSIG
10:00
V
21 °C 10 km+ 3.600 ft Var Var 1 kt METAR LFMK 190800Z AUTO VRB01KT 9999 FEW019 BKN036 OVC042 21/18 Q1013 NOSIG
09:30
M
21 °C 10 km+ 1.800 ft Var Var 2 kt METAR LFMK 190730Z AUTO VRB02KT 9999 BKN018 OVC032 21/18 Q1013 NOSIG
09:00
M
20 °C 10 km+ 2.800 ft Var Var 2 kt METAR LFMK 190700Z AUTO VRB02KT 9999 OVC028 20/18 Q1012 NOSIG
08:30
M
19 °C 10 km+ 2.900 ft Var Var 2 kt METAR LFMK 190630Z AUTO VRB02KT 9999 FEW011 OVC029 19/17 Q1012 NOSIG
08:00
M
19 °C 10 km+ 2.800 ft Var Var 3 kt METAR LFMK 190600Z AUTO VRB03KT 9999 FEW017 OVC028 19/17 Q1012 NOSIG
07:30
M
19 °C 10 km+ 2.500 ft Var Var 2 kt METAR LFMK 190530Z AUTO VRB02KT 9999 FEW019 OVC025 19/17 Q1012 NOSIG
07:00
M
20 °C 10 km+ 2.500 ft Var Var 2 kt METAR LFMK 190500Z AUTO VRB02KT 9999 OVC025 20/18 Q1012 NOSIG
06:30
M
20 °C 10 km+ 2.300 ft Var Var 1 kt METAR LFMK 190430Z AUTO VRB01KT 9999 FEW011 OVC023 20/18 Q1012 NOSIG
06:00
M
20 °C 10 km+ 2.000 ft Var Var 2 kt METAR LFMK 190400Z AUTO VRB02KT 9999 OVC020 20/18 Q1011 NOSIG
05:30
M
20 °C 10 km+ 1.700 ft 090° 090° 3 kt METAR LFMK 190330Z AUTO 09003KT 060V160 9999 OVC017 20/18 Q1011 NOSIG
05:00
M
20 °C 10 km+ 1.900 ft 080° 080° 9 kt METAR LFMK 190300Z AUTO 08009KT 9999 OVC019 20/18 Q1011
04:30
M
19 °C 10 km+ 1.800 ft 090° 090° 6 kt METAR LFMK 190230Z AUTO 09006KT 060V160 9999 OVC018 19/18 Q1011
04:00
M
19 °C 10 km+ 2.600 ft 080° 080° 7 kt METAR LFMK 190200Z AUTO 08007KT 9999 SCT016 BKN026 19/17 Q1011
03:30
V
19 °C 10 km+ - 090° 090° 6 kt METAR LFMK 190130Z AUTO 09006KT 040V130 9999 SCT017 SCT027 19/17 Q1011
03:00
M
20 °C 10 km+ 1.600 ft 090° 090° 7 kt METAR LFMK 190100Z AUTO 09007KT 050V150 9999 BKN016 20/17 Q1011
02:30
M
20 °C 10 km+ 1.600 ft 090° 090° 9 kt METAR LFMK 190030Z AUTO 09009KT 060V120 9999 BKN016 20/17 Q1011
02:00
M
20 °C 10 km+ 1.400 ft 090° 090° 8 kt METAR LFMK 190000Z AUTO 09008KT 060V120 9999 OVC014 20/17 Q1012
01:30
M
20 °C 10 km+ 1.300 ft 090° 090° 9 kt METAR LFMK 182330Z AUTO 09009KT 9999 OVC013 20/18 Q1012
01:00
M
20 °C 10 km+ 1.300 ft 080° 080° 9 kt METAR LFMK 182300Z AUTO 08009KT 9999 OVC013 20/18 Q1012
00:30
M
20 °C 10 km+ 1.300 ft 080° 080° 10 kt METAR LFMK 182230Z AUTO 08010KT 060V130 9999 OVC013 20/18 Q1012
00:00
M
20 °C 10 km+ 1.300 ft 100° 100° 10 kt METAR LFMK 182200Z AUTO 10010KT 060V150 9999 BKN013 20/18 Q1011

18 de junho de 2024

Hora Código Clima Temp. Visibilidade Tecto Vento METAR/SPECI
23:30
M
20 °C 10 km+ 1.300 ft 090° 090° 13 - 24 kt METAR LFMK 182130Z AUTO 09013G24KT 9999 BKN013 20/18 Q1011
23:00
V
21 °C 10 km+ - 080° 080° 17 - 27 kt METAR LFMK 182100Z AUTO 08017G27KT 9999 SCT014 21/18 Q1011
22:30
V
21 °C 10 km+ - 080° 080° 16 kt METAR LFMK 182030Z AUTO 08016KT CAVOK 21/17 Q1011
22:00
V
21 °C 10 km+ - 090° 090° 15 kt METAR LFMK 182000Z AUTO 09015KT CAVOK 21/17 Q1010
21:30
V
22 °C 10 km+ - 080° 080° 18 kt METAR LFMK 181930Z AUTO 08018KT CAVOK 22/16 Q1010
21:00
V
23 °C 10 km+ - 090° 090° 19 - 29 kt METAR LFMK 181900Z AUTO 09019G29KT CAVOK 23/16 Q1010
20:30
V
24 °C 10 km+ - 080° 080° 17 kt METAR LFMK 181830Z AUTO 08017KT CAVOK 24/16 Q1010
20:00
V
25 °C 10 km+ - 080° 080° 21 kt METAR LFMK 181800Z AUTO 08021KT CAVOK 25/16 Q1010 BECMG 09022G32KT
19:30
V
26 °C 10 km+ - 080° 080° 19 kt METAR LFMK 181730Z AUTO 08019KT CAVOK 26/16 Q1010 BECMG 09022G32KT
19:00
V
27 °C 10 km+ - 080° 080° 19 kt METAR LFMK 181700Z AUTO 08019KT 060V120 CAVOK 27/16 Q1010 BECMG 09022G32KT
18:30
V
27 °C 9 km - 080° 080° 19 kt METAR LFMK 181630Z AUTO 08019KT 060V120 9000 NSC 27/16 Q1010 BECMG 09022G32KT
18:00
V
28 °C 9 km - 080° 080° 23 kt METAR LFMK 181600Z AUTO 08023KT 9000 NSC 28/16 Q1010 BECMG 09022G32KT
17:30
V
28 °C 9 km - 080° 080° 22 kt METAR LFMK 181530Z AUTO 08022KT 070V130 9000 NSC 28/15 Q1011 BECMG 09022G32KT
17:00
V
28 °C 10 km+ - 080° 080° 22 kt METAR LFMK 181500Z AUTO 08022KT 060V120 CAVOK 28/16 Q1011 BECMG 09022G32KT
16:30
V
28 °C 10 km+ - 080° 080° 22 kt METAR LFMK 181430Z AUTO 08022KT 060V120 CAVOK 28/15 Q1011 BECMG 09018G28KT
16:00
V
28 °C 10 km+ - 080° 080° 21 kt METAR LFMK 181400Z AUTO 08021KT CAVOK 28/15 Q1011 BECMG 09018G28KT
15:30
V
27 °C 10 km+ - 080° 080° 21 - 32 kt METAR LFMK 181330Z AUTO 08021G32KT 060V120 CAVOK 27/16 Q1012 NOSIG
15:00
V
27 °C 10 km+ - 080° 080° 23 kt METAR LFMK 181300Z AUTO 08023KT CAVOK 27/16 Q1012 BECMG 09018G28KT
14:30
V
25 °C 10 km+ - 080° 080° 20 kt METAR LFMK 181230Z AUTO 08020KT CAVOK 25/16 Q1012 BECMG 09018G28KT
14:00
V
24 °C 10 km+ - 090° 090° 18 - 30 kt METAR LFMK 181200Z AUTO 09018G30KT 060V130 CAVOK 24/16 Q1013 NOSIG
13:30
V
24 °C 10 km+ - 090° 090° 16 - 27 kt METAR LFMK 181130Z AUTO 09016G27KT 070V130 CAVOK 24/16 Q1013 NOSIG
13:00
V
23 °C 10 km+ - 100° 100° 12 - 23 kt METAR LFMK 181100Z AUTO 10012G23KT 070V140 CAVOK 23/16 Q1013 NOSIG
12:30
V
23 °C 10 km+ - 090° 090° 14 kt METAR LFMK 181030Z AUTO 09014KT 060V130 9999 FEW032 23/16 Q1013 BECMG 09018G28KT
12:00
M
23 °C 10 km+ 2.800 ft 080° 080° 18 kt METAR LFMK 181000Z AUTO 08018KT 9999 BKN028 BKN033 23/16 Q1013 BECMG 09018G28KT
11:30
M
23 °C 10 km+ 2.600 ft 080° 080° 16 kt METAR LFMK 180930Z AUTO 08016KT 060V120 9999 BKN026 BKN200 23/16 Q1013 BECMG 09018G28KT
11:00
M
22 °C 10 km+ 2.100 ft 080° 080° 16 kt METAR LFMK 180900Z AUTO 08016KT 050V120 9999 BKN021 BKN028 22/17 Q1013 BECMG 09018G28KT
10:30
M
21 °C 10 km+ 1.800 ft 080° 080° 16 kt METAR LFMK 180830Z AUTO 08016KT 9999 BKN018 OVC028 21/17 Q1014 TEMPO 09020G33KT
10:00
M
20 °C 10 km+ 1.600 ft 080° 080° 16 kt METAR LFMK 180800Z AUTO 08016KT 9999 BKN016 OVC026 20/16 Q1014 BECMG 09015G25KT
09:30
M
20 °C 10 km+ 1.500 ft 090° 090° 12 kt METAR LFMK 180730Z AUTO 09012KT 070V130 9999 OVC015 20/16 Q1014 BECMG 09015G25KT
09:00
M
19 °C 10 km+ 1.500 ft 090° 090° 12 kt METAR LFMK 180700Z AUTO 09012KT 9999 OVC015 19/16 Q1014 BECMG 09015G25KT
08:30
M
19 °C 10 km+ 1.500 ft 090° 090° 12 kt METAR LFMK 180630Z AUTO 09012KT 050V120 9999 OVC015 19/16 Q1013 BECMG 09015G25KT
08:00
M
19 °C 10 km+ 1.600 ft 090° 090° 11 kt METAR LFMK 180600Z AUTO 09011KT 070V140 9999 OVC016 19/15 Q1013 BECMG 09015G25KT
07:30
M
19 °C 10 km+ 1.600 ft 080° 080° 14 kt METAR LFMK 180530Z AUTO 08014KT 060V120 9999 OVC016 19/15 Q1013 BECMG 09015G25KT
07:00
M
19 °C 10 km+ 1.700 ft 090° 090° 15 kt METAR LFMK 180500Z AUTO 09015KT 050V110 9999 OVC017 19/15 Q1013 BECMG 09015G25KT
06:30
M
19 °C 10 km+ 1.700 ft 080° 080° 14 kt METAR LFMK 180430Z AUTO 08014KT 9999 OVC017 19/15 Q1013 BECMG 09015G25KT
06:00
M
18 °C 10 km+ 1.600 ft 080° 080° 13 kt METAR LFMK 180400Z AUTO 08013KT 9999 OVC016 18/15 Q1013 BECMG 09015G25KT
05:30
M
19 °C 10 km+ 1.600 ft 080° 080° 14 kt METAR LFMK 180330Z AUTO 08014KT 070V130 9999 OVC016 19/15 Q1013 BECMG 09015G25KT
05:00
M
18 °C 10 km+ 1.600 ft 080° 080° 15 kt METAR LFMK 180300Z AUTO 08015KT 9999 OVC016 18/15 Q1013
04:30
M
18 °C 10 km+ 1.600 ft 090° 090° 14 kt METAR LFMK 180230Z AUTO 09014KT 050V110 9999 OVC016 18/15 Q1013
04:00
M
18 °C 10 km+ 1.600 ft 080° 080° 14 kt METAR LFMK 180200Z AUTO 08014KT 060V120 9999 OVC016 18/15 Q1013
03:30
M
18 °C 10 km+ 1.500 ft 080° 080° 16 kt METAR LFMK 180130Z AUTO 08016KT 9999 OVC015 18/15 Q1013
03:00
M
18 °C 10 km+ 1.500 ft 080° 080° 17 kt METAR LFMK 180100Z AUTO 08017KT 9999 OVC015 18/15 Q1013
02:30
M
18 °C 10 km+ 1.400 ft 080° 080° 17 kt METAR LFMK 180030Z AUTO 08017KT 9999 OVC014 18/15 Q1013
02:00
I
17 °C 10 km+ 600 ft 080° 080° 16 kt METAR LFMK 180000Z AUTO 08016KT 9999 BKN006 OVC012 17/16 Q1014
01:30
I
17 °C 6 km 500 ft 080° 080° 17 kt METAR LFMK 172330Z AUTO 08017KT 6000 OVC005 17/16 Q1014
01:00
I
17 °C 6 km 500 ft 080° 080° 18 kt METAR LFMK 172300Z AUTO 08018KT 6000 OVC005 17/17 Q1014
00:30
I
18 °C 5 km 500 ft 080° 080° 16 kt METAR LFMK 172230Z AUTO 08016KT 5000 BR OVC005 18/17 Q1014
00:00
I
18 °C 6 km 500 ft 080° 080° 18 kt METAR LFMK 172200Z AUTO 08018KT 6000 OVC005 18/17 Q1014

17 de junho de 2024

Hora Código Clima Temp. Visibilidade Tecto Vento METAR/SPECI
23:30
L
18 °C 5 km 400 ft 080° 080° 18 kt METAR LFMK 172130Z AUTO 08018KT 5000 BR OVC004 18/17 Q1014
23:00
I
19 °C 5 km 500 ft 080° 080° 17 kt METAR LFMK 172100Z AUTO 08017KT 5000 BR OVC005 19/18 Q1013
22:30
I
19 °C 6 km 500 ft 080° 080° 16 kt METAR LFMK 172030Z AUTO 08016KT 6000 OVC005 19/18 Q1013
22:00
I
19 °C 4,6 km 600 ft 080° 080° 16 kt METAR LFMK 172000Z AUTO 08016KT 4600 BR OVC006 19/18 Q1013
21:30
I
19 °C 5 km 600 ft 080° 080° 17 kt METAR LFMK 171930Z AUTO 08017KT 5000 BR OVC006 19/18 Q1012
21:00
I
20 °C 9 km 700 ft 080° 080° 16 kt METAR LFMK 171900Z AUTO 08016KT 060V120 9000 OVC007 20/18 Q1012
20:30
I
20 °C 10 km+ 800 ft 080° 080° 17 kt METAR LFMK 171830Z AUTO 08017KT 9999 OVC008 20/18 Q1012
20:00
I
20 °C 10 km+ 700 ft 080° 080° 16 kt METAR LFMK 171800Z AUTO 08016KT 9999 OVC007 20/18 Q1012 TEMPO 4000 -RADZ
19:30
I
20 °C 6 km 700 ft 080° 080° 16 kt METAR LFMK 171730Z AUTO 08016KT 6000 OVC007 20/19 Q1012 TEMPO 4000 -RADZ
19:00
I
20 °C 9 km 700 ft 080° 080° 19 kt METAR LFMK 171700Z AUTO 08019KT 9000 OVC007 20/18 Q1012 TEMPO 4000 -RADZ
18:30
I
20 °C 7 km 700 ft 080° 080° 17 kt METAR LFMK 171630Z AUTO 08017KT 7000 OVC007 20/18 Q1012 TEMPO 09020G30KT 4000 -RADZ BKN013 OVC020
18:00
I
20 °C 7 km 700 ft 080° 080° 18 kt METAR LFMK 171600Z AUTO 08018KT 7000 OVC007 20/19 Q1012 TEMPO 09020G30KT BECMG BKN013 OVC020
17:30
I
21 °C 10 km+ 800 ft 080° 080° 17 kt METAR LFMK 171530Z AUTO 08017KT 9999 OVC008 21/18 Q1013 TEMPO 09020G30KT BECMG BKN013 OVC020
17:00
I
21 °C 9 km 900 ft 080° 080° 18 kt METAR LFMK 171500Z AUTO 08018KT 9000 OVC009 21/18 Q1013 TEMPO 09022G33KT BECMG SCT018 BKN025
16:30
M
22 °C 10 km+ 1.400 ft 080° 080° 20 kt METAR LFMK 171430Z AUTO 08020KT 060V120 9999 BKN014 BKN019 OVC034 22/18 Q1013 TEMPO 09022G33KT BECMG SCT018 BKN025
16:00
M
24 °C 8 km 2.100 ft 090° 090° 15 kt METAR LFMK 171400Z AUTO 09015KT 070V150 8000 BKN021 OVC037 24/18 Q1013 TEMPO 09022G33KT
15:30
M
24 °C 8 km 3.000 ft 090° 090° 20 kt METAR LFMK 171330Z AUTO 09020KT 8000 SCT020 BKN030 OVC035 24/18 Q1013 TEMPO 09022G33KT
15:00
M
24 °C 9 km 1.800 ft 090° 090° 18 - 29 kt METAR LFMK 171300Z AUTO 09018G29KT 060V130 9000 BKN018 BKN026 BKN034 24/18 Q1013 NOSIG
14:30
M
24 °C 9 km 1.800 ft 080° 080° 22 kt METAR LFMK 171230Z AUTO 08022KT 9000 BKN018 OVC028 24/19 Q1013 TEMPO 09022G33KT
14:00
M
23 °C 9 km 1.600 ft 080° 080° 19 - 29 kt METAR LFMK 171200Z AUTO 08019G29KT 9000 OVC016 23/18 Q1013 NOSIG
13:30
M
24 °C 9 km 1.700 ft 080° 080° 19 kt METAR LFMK 171130Z AUTO 08019KT 9000 BKN017 BKN030 24/18 Q1013 TEMPO 09022G33KT
13:00
M
24 °C 10 km+ 3.000 ft 080° 080° 19 kt METAR LFMK 171100Z AUTO 08019KT 9999 SCT022 BKN030 24/18 Q1013 TEMPO 09022G33KT
12:30
V
25 °C 10 km+ 3.100 ft 090° 090° 18 kt METAR LFMK 171030Z AUTO 09018KT 070V130 9999 FEW024 BKN031 25/17 Q1013 TEMPO 09022G33KT
12:00
M
24 °C 10 km+ 2.400 ft 080° 080° 18 kt METAR LFMK 171000Z AUTO 08018KT 9999 BKN024 OVC030 24/18 Q1013 TEMPO 09022G33KT
11:30
M
22 °C 10 km+ 2.200 ft 090° 090° 14 - 25 kt METAR LFMK 170930Z AUTO 09014G25KT 060V130 9999 BKN022 OVC029 22/17 Q1013 TEMPO 09018KT
11:00
M
22 °C 10 km+ 1.900 ft 080° 080° 14 kt METAR LFMK 170900Z AUTO 08014KT 9999 BKN019 OVC026 22/17 Q1013 TEMPO BKN009 BECMG 09017G27KT
10:30
M
21 °C 10 km+ 1.700 ft 080° 080° 15 kt METAR LFMK 170830Z AUTO 08015KT 9999 BKN017 OVC024 21/17 Q1013 TEMPO BKN009 BECMG 09017G27KT
10:00
M
20 °C 9 km 1.600 ft 090° 090° 12 kt METAR LFMK 170800Z AUTO 09012KT 060V120 9000 BKN016 OVC023 20/16 Q1013 TEMPO BKN009 BECMG 09017G27KT
09:30
M
20 °C 10 km+ 1.500 ft 090° 090° 13 kt METAR LFMK 170730Z AUTO 09013KT 060V120 9999 OVC015 20/16 Q1013 TEMPO BKN009 BECMG 09017G27KT
09:00
M
19 °C 10 km+ 1.500 ft 090° 090° 11 kt METAR LFMK 170700Z AUTO 09011KT 060V130 9999 OVC015 19/16 Q1013 TEMPO BKN009 BECMG 09017G27KT
08:30
M
19 °C 10 km+ 1.400 ft 090° 090° 13 kt METAR LFMK 170630Z AUTO 09013KT 060V120 9999 OVC014 19/16 Q1012 TEMPO BKN009 BECMG 09017G27KT
08:00
M
19 °C 10 km+ 1.400 ft 100° 100° 9 kt METAR LFMK 170600Z AUTO 10009KT 060V140 9999 OVC014 19/16 Q1012 TEMPO BKN009
Relatar uma mudança